createdAt,value
2019-05-26T01:43:01.368Z,0.1
2019-05-26T01:45:01.164Z,0.2
2019-05-26T01:46:01.085Z,0.3
2019-05-26T01:48:01.212Z,0.4
2019-05-26T01:49:01.064Z,0.5
2019-05-26T01:51:01.067Z,0.6
2019-05-26T01:52:01.071Z,0.7
2019-05-26T01:53:01.233Z,0.9
2019-05-26T01:54:01.065Z,1.0
2019-05-26T01:55:01.094Z,1.1
2019-05-26T01:56:01.070Z,1.3
2019-05-26T01:57:01.067Z,1.4
2019-05-26T01:58:01.216Z,1.5
2019-05-26T01:59:01.063Z,1.7
2019-05-26T02:00:01.110Z,1.8
2019-05-26T02:01:01.072Z,2.0
2019-05-26T02:02:01.071Z,2.2
2019-05-26T02:03:01.210Z,2.5
2019-05-26T02:04:01.067Z,2.7
2019-05-26T02:05:01.103Z,3.1
2019-05-26T02:06:01.067Z,3.5
2019-05-26T02:07:01.071Z,3.9
2019-05-26T02:08:01.218Z,4.3
2019-05-26T02:09:01.069Z,4.9
2019-05-26T02:10:01.100Z,5.5
2019-05-26T02:11:01.068Z,6.1
2019-05-26T02:12:01.069Z,6.9
2019-05-26T02:13:01.222Z,7.7
2019-05-26T02:14:01.069Z,8.7
2019-05-26T02:15:01.198Z,9.7
2019-05-26T02:16:01.072Z,10.9
2019-05-26T02:17:01.604Z,12.3
2019-05-26T02:18:01.315Z,13.7
2019-05-26T02:19:01.070Z,15.4
2019-05-26T02:20:01.102Z,17.2
2019-05-26T02:21:01.076Z,19.1
2019-05-26T02:22:01.073Z,21.2
2019-05-26T02:23:01.224Z,23.3
2019-05-26T02:24:01.075Z,25.6
2019-05-26T02:25:01.104Z,28.0
2019-05-26T02:26:01.076Z,30.6
2019-05-26T02:27:01.072Z,33.5
2019-05-26T02:28:01.227Z,36.5
2019-05-26T02:29:01.112Z,39.9
2019-05-26T02:30:01.073Z,43.5
2019-05-26T02:31:01.080Z,47.2
2019-05-26T02:32:01.075Z,51.3
2019-05-26T02:33:01.221Z,56.4
2019-05-26T02:34:01.085Z,62.5
2019-05-26T02:35:01.081Z,69.7
2019-05-26T02:36:01.082Z,77.8
2019-05-26T02:37:01.077Z,86.9
2019-05-26T02:38:01.255Z,97.1
2019-05-26T02:39:03.165Z,108.5
2019-05-26T02:40:01.085Z,121.1
2019-05-26T02:41:01.083Z,135.1
2019-05-26T02:42:01.079Z,150.5
2019-05-26T02:43:02.227Z,167.5
2019-05-26T02:44:01.084Z,185.9
2019-05-26T02:45:01.087Z,206.0
2019-05-26T02:46:01.079Z,228.1
2019-05-26T02:47:01.085Z,252.3
2019-05-26T02:48:01.246Z,278.3
2019-05-26T02:49:01.084Z,306.7
2019-05-26T02:50:01.087Z,337.7
2019-05-26T02:51:01.088Z,371.9
2019-05-26T02:52:01.081Z,409.9
2019-05-26T02:53:01.228Z,452.2
2019-05-26T02:54:01.087Z,498.8
2019-05-26T02:55:01.111Z,549.4
2019-05-26T02:56:01.082Z,603.1
2019-05-26T02:57:01.091Z,659.8
2019-05-26T02:58:01.230Z,719.3
2019-05-26T02:59:01.107Z,781.1
2019-05-26T03:00:01.091Z,844.9
2019-05-26T03:01:01.085Z,905.7
2019-05-26T03:02:04.068Z,961.2
2019-05-26T03:03:01.253Z,1016.0
2019-05-26T03:04:01.090Z,1074.3
2019-05-26T03:05:01.094Z,1135.9
2019-05-26T03:06:01.084Z,1196.1
2019-05-26T03:07:01.084Z,1255.2
2019-05-26T03:08:01.233Z,1316.9
2019-05-26T03:09:20.838Z,1377.5
2019-05-26T03:10:01.060Z,1433.0
2019-05-26T03:11:01.089Z,1487.5
2019-05-26T03:12:01.091Z,1539.3
2019-05-26T03:13:01.233Z,1600.4
2019-05-26T03:14:01.107Z,1677.0
2019-05-26T03:15:01.103Z,1771.1
2019-05-26T03:16:01.922Z,1890.5
2019-05-26T03:17:01.075Z,2027.9
2019-05-26T03:18:01.274Z,2170.3
2019-05-26T03:19:01.090Z,2317.1
2019-05-26T03:20:01.095Z,2473.2
2019-05-26T03:21:01.089Z,2643.9
2019-05-26T03:22:02.012Z,2823.1
2019-05-26T03:23:01.239Z,3003.7
2019-05-26T03:24:01.094Z,3187.0
2019-05-26T03:25:01.091Z,3375.6
2019-05-26T03:26:01.092Z,3564.4
2019-05-26T03:27:01.094Z,3752.6
2019-05-26T03:28:01.279Z,3927.5
2019-05-26T03:29:01.100Z,4084.5
2019-05-26T03:30:01.093Z,4225.5
2019-05-26T03:31:01.092Z,4348.1
2019-05-26T03:32:01.095Z,4458.5
2019-05-26T03:33:01.251Z,4559.9
2019-05-26T03:34:01.287Z,4645.1
2019-05-26T03:35:01.092Z,4712.1
2019-05-26T03:36:01.102Z,4766.1
2019-05-26T03:37:01.093Z,4818.5
2019-05-26T03:38:01.301Z,4878.7
2019-05-26T03:39:01.103Z,4962.3
2019-05-26T03:40:01.095Z,5080.3
2019-05-26T03:41:01.073Z,5242.2
2019-05-26T03:42:01.094Z,5444.1
2019-05-26T03:43:01.246Z,5687.3
2019-05-26T03:44:01.073Z,5973.1
2019-05-26T03:45:01.079Z,6301.9
2019-05-26T03:46:01.101Z,6635.8
2019-05-26T03:47:01.095Z,6948.8
2019-05-26T03:48:01.259Z,7235.0
2019-05-26T03:49:01.109Z,7510.0
2019-05-26T03:50:01.120Z,7784.8
2019-05-26T03:51:01.096Z,8054.9
2019-05-26T03:52:01.099Z,8326.0
2019-05-26T03:53:01.337Z,8584.9
2019-05-26T03:54:01.097Z,8809.3
2019-05-26T03:55:01.105Z,9026.0
2019-05-26T03:56:01.099Z,9285.1
2019-05-26T03:57:01.655Z,9576.0
2019-05-26T03:58:01.272Z,9856.3
2019-05-26T03:59:01.104Z,10135.5
2019-05-26T04:00:01.104Z,10403.7
2019-05-26T04:01:01.113Z,10700.5
2019-05-26T04:02:06.103Z,11055.9
2019-05-26T04:03:01.221Z,11479.1
2019-05-26T04:04:06.100Z,11948.1
2019-05-26T04:05:01.107Z,12442.8
2019-05-26T04:06:01.105Z,12954.5
2019-05-26T04:07:02.971Z,13461.9
2019-05-26T04:08:04.621Z,13952.7
2019-05-26T04:09:01.151Z,14401.3
2019-05-26T04:10:04.981Z,14799.4
2019-05-26T04:11:01.101Z,15078.4
2019-05-26T04:12:01.108Z,15263.5
2019-05-26T04:13:01.315Z,15403.1
2019-05-26T04:14:01.131Z,15494.3
2019-05-26T04:15:01.112Z,15538.6
2019-05-26T04:16:01.108Z,15568.0
2019-05-26T04:17:01.108Z,15590.8
2019-05-26T04:18:01.257Z,15631.6
2019-05-26T04:19:01.133Z,15704.9
2019-05-26T04:20:01.108Z,15810.3
2019-05-26T04:22:01.098Z,15925.4
2019-05-26T04:23:01.241Z,16006.5
2019-05-26T04:24:01.090Z,16200.7
2019-05-26T04:25:06.101Z,16579.8
2019-05-26T04:26:01.091Z,17041.3
2019-05-26T04:27:01.098Z,17580.4
2019-05-26T04:28:01.243Z,18196.4
2019-05-26T04:29:01.102Z,18824.9
2019-05-26T04:30:01.120Z,19741.7
2019-05-26T04:31:01.171Z,20846.9
2019-05-26T04:32:02.170Z,22074.3
2019-05-26T04:33:01.251Z,23343.0
2019-05-26T04:34:01.091Z,24578.9
2019-05-26T04:35:01.100Z,25925.2
2019-05-26T04:36:06.103Z,27272.9
2019-05-26T04:37:01.100Z,28462.4
2019-05-26T04:38:01.271Z,29614.0
2019-05-26T04:39:01.093Z,30607.9
2019-05-26T04:40:01.092Z,31477.4
2019-05-26T04:41:01.115Z,32162.4
2019-05-26T04:42:01.093Z,32877.3
2019-05-26T04:43:01.238Z,33583.7
2019-05-26T04:44:01.099Z,34246.3
2019-05-26T04:45:01.073Z,34616.2
2019-05-26T04:46:06.106Z,34918.9
2019-05-26T04:47:01.120Z,35202.2
2019-05-26T04:48:01.275Z,35493.4
2019-05-26T04:49:01.101Z,35849.3
2019-05-26T04:50:01.115Z,36157.9
2019-05-26T04:51:06.110Z,36512.1
2019-05-26T04:52:01.101Z,36829.7
2019-05-26T04:53:06.467Z,37142.3
2019-05-26T04:54:01.102Z,37594.9
2019-05-26T04:55:01.101Z,37971.2
2019-05-26T04:56:01.131Z,38366.9
2019-05-26T04:57:01.103Z,38691.3
2019-05-26T04:58:01.249Z,39052.9
2019-05-26T04:59:01.108Z,39512.0
2019-05-26T05:00:01.117Z,40174.4
2019-05-26T05:01:01.124Z,40638.5
2019-05-26T05:02:01.102Z,40805.4
2019-05-26T05:03:01.331Z,40974.9
2019-05-26T05:04:01.109Z,41055.1
2019-05-26T05:05:01.109Z,41002.9
2019-05-26T05:06:06.111Z,40886.5
2019-05-26T05:07:01.110Z,40908.9
2019-05-26T05:08:01.250Z,41046.9
2019-05-26T05:09:01.114Z,41251.7
2019-05-26T05:10:01.113Z,41766.3
2019-05-26T05:11:06.110Z,42563.9
2019-05-26T05:12:01.104Z,43872.6
2019-05-26T05:13:01.258Z,45407.8
2019-05-26T05:14:01.104Z,46839.1
2019-05-26T05:15:01.112Z,48214.9
2019-05-26T05:16:06.104Z,49746.9
2019-05-26T05:17:01.103Z,51448.1
2019-05-26T05:18:01.250Z,53063.2
2019-05-26T05:19:01.105Z,54678.5
2019-05-26T05:20:01.112Z,56300.8
2019-05-26T05:21:01.104Z,57884.1
2019-05-26T05:22:01.152Z,59497.2
2019-05-26T05:23:01.261Z,61064.1
2019-05-26T05:24:01.135Z,62480.1
2019-05-26T05:25:01.115Z,63648.3
2019-05-26T05:26:01.105Z,64634.2
2019-05-26T05:27:03.338Z,65101.8
2019-05-26T05:28:01.253Z,65257.7
2019-05-26T05:29:01.105Z,65465.5
2019-05-26T05:30:01.107Z,65535.0
2019-05-26T05:45:01.221Z,65535.0
2019-05-26T06:00:01.113Z,65535.0
2019-05-26T06:15:01.946Z,65535.0
2019-05-26T06:30:01.313Z,65535.0
2019-05-26T06:32:01.243Z,65502.0
2019-05-26T06:37:01.251Z,65024.9
2019-05-26T06:38:01.104Z,64114.1
2019-05-26T06:39:01.095Z,63222.2
2019-05-26T06:40:01.117Z,62064.4
2019-05-26T06:41:01.094Z,60972.3
2019-05-26T06:42:01.239Z,59688.4
2019-05-26T06:43:01.096Z,58373.9
2019-05-26T06:44:01.117Z,56885.0
2019-05-26T06:45:01.101Z,55530.9
2019-05-26T06:46:01.096Z,54071.2
2019-05-26T06:47:01.243Z,52848.3
2019-05-26T06:48:01.100Z,51568.9
2019-05-26T06:49:01.118Z,50123.9
2019-05-26T06:50:02.031Z,48342.3
2019-05-26T06:51:01.103Z,46786.4
2019-05-26T06:52:01.255Z,45908.8
2019-05-26T06:53:01.102Z,44806.1
2019-05-26T06:54:06.120Z,44203.1
2019-05-26T06:55:01.096Z,44284.4
2019-05-26T06:56:01.105Z,43933.9
2019-05-26T06:57:01.256Z,43864.1
2019-05-26T06:58:01.095Z,43930.6
2019-05-26T06:59:02.806Z,44041.0
2019-05-26T07:00:01.110Z,44519.7
2019-05-26T07:01:01.155Z,44894.4
2019-05-26T07:02:01.246Z,44967.6
2019-05-26T07:03:01.097Z,44422.1
2019-05-26T07:04:01.122Z,44950.6
2019-05-26T07:05:01.104Z,46677.1
2019-05-26T07:06:01.105Z,47562.8
2019-05-26T07:07:01.272Z,48265.7
2019-05-26T07:08:01.515Z,49614.5
2019-05-26T07:09:06.114Z,50149.1
2019-05-26T07:10:01.101Z,50811.7
2019-05-26T07:11:01.108Z,51769.9
2019-05-26T07:12:01.251Z,52240.3
2019-05-26T07:13:01.104Z,52248.8
2019-05-26T07:14:06.107Z,52654.7
2019-05-26T07:15:01.545Z,53004.3
2019-05-26T07:16:01.109Z,54089.3
2019-05-26T07:17:01.265Z,54932.8
2019-05-26T07:18:01.108Z,55869.6
2019-05-26T07:19:01.137Z,55675.8
2019-05-26T07:20:01.105Z,54621.7
2019-05-26T07:21:01.108Z,53884.0
2019-05-26T07:22:01.254Z,52995.9
2019-05-26T07:24:01.212Z,51875.2
2019-05-26T07:25:01.096Z,50754.5
2019-05-26T07:26:01.095Z,49397.1
2019-05-26T07:27:01.090Z,48233.0
2019-05-26T07:28:01.244Z,47598.6
2019-05-26T07:29:01.091Z,47145.3
2019-05-26T07:30:01.123Z,46129.9
2019-05-26T07:31:01.094Z,44774.3
2019-05-26T07:32:01.092Z,43169.1
2019-05-26T07:33:01.301Z,41494.5
2019-05-26T07:34:01.091Z,40433.6
2019-05-26T07:35:01.093Z,39799.1
2019-05-26T07:36:01.093Z,39289.4
2019-05-26T07:37:01.091Z,38822.8
2019-05-26T07:38:01.336Z,38563.5
2019-05-26T07:39:01.116Z,38672.0
2019-05-26T07:40:01.127Z,38929.5
2019-05-26T07:41:01.097Z,38592.8
2019-05-26T07:42:09.746Z,38149.6
2019-05-26T07:43:01.263Z,37566.9
2019-05-26T07:44:01.951Z,37146.9
2019-05-26T07:45:01.097Z,37400.3
2019-05-26T07:46:01.095Z,37770.5
2019-05-26T07:47:01.097Z,38310.5
2019-05-26T07:48:01.225Z,39102.8
2019-05-26T07:49:01.104Z,40084.3
2019-05-26T07:50:01.096Z,41829.0
2019-05-26T07:51:01.104Z,43354.5
2019-05-26T07:52:01.132Z,45228.9
2019-05-26T07:53:01.313Z,47028.0
2019-05-26T07:54:01.105Z,48705.1
2019-05-26T07:55:01.105Z,50528.5
2019-05-26T07:56:01.111Z,52636.5
2019-05-26T07:57:06.105Z,54728.3
2019-05-26T07:58:01.253Z,56828.7
2019-05-26T07:59:01.106Z,58941.5
2019-05-26T08:00:01.657Z,60676.0
2019-05-26T08:01:01.099Z,62187.2
2019-05-26T08:02:06.109Z,63252.3
2019-05-26T08:03:01.253Z,64473.9
2019-05-26T08:04:01.105Z,65441.5
2019-05-26T08:06:01.104Z,65535.0
2019-05-26T08:07:06.105Z,65485.7
2019-05-26T08:08:11.849Z,65247.1
2019-05-26T08:09:01.108Z,64985.7
2019-05-26T08:10:01.123Z,63989.1
2019-05-26T08:11:01.108Z,63481.4
2019-05-26T08:12:06.114Z,62659.1
2019-05-26T08:13:01.254Z,61985.1
2019-05-26T08:14:01.077Z,61907.6
2019-05-26T08:15:01.114Z,61907.6
2019-05-26T08:18:01.351Z,61859.5
2019-05-26T08:23:01.343Z,61790.9
2019-05-26T08:24:01.090Z,62029.5
2019-05-26T08:25:01.095Z,62206.0
2019-05-26T08:26:01.095Z,63202.6
2019-05-26T08:27:01.091Z,63710.3
2019-05-26T08:28:02.415Z,64532.5
2019-05-26T08:29:01.096Z,65206.6
2019-05-26T08:30:01.099Z,65264.0
2019-05-26T08:34:01.389Z,65312.1
2019-05-26T08:37:01.095Z,65230.3
2019-05-26T08:38:01.096Z,65348.1
2019-05-26T08:40:01.260Z,65433.1
2019-05-26T08:45:01.273Z,65453.1
2019-05-26T08:52:01.100Z,65535.0
2019-05-26T09:00:01.115Z,65535.0
2019-05-26T09:16:01.366Z,65535.0
2019-05-26T09:30:01.097Z,65535.0
2019-05-26T09:35:06.101Z,65137.3
2019-05-26T09:36:01.248Z,64965.5
2019-05-26T09:45:01.408Z,64965.5
2019-05-26T09:50:01.275Z,65363.1
2019-05-26T09:51:01.100Z,65535.0
2019-05-26T10:00:01.172Z,65382.1
2019-05-26T10:01:01.252Z,65021.5
2019-05-26T10:08:01.370Z,64824.5
2019-05-26T10:10:01.098Z,64766.2
2019-05-26T10:15:01.371Z,64766.2
2019-05-26T10:16:01.097Z,64919.1
2019-05-26T10:17:01.120Z,65279.7
2019-05-26T10:23:01.313Z,65476.7
2019-05-26T10:25:01.117Z,65535.0
2019-05-26T10:30:01.324Z,65535.0
2019-05-26T10:45:01.167Z,65535.0
2019-05-26T11:00:01.115Z,65535.0
2019-05-26T11:15:01.157Z,65535.0
2019-05-26T11:30:01.333Z,65535.0
2019-05-26T11:45:01.103Z,65535.0
2019-05-26T12:00:01.533Z,65535.0
2019-05-26T12:15:06.232Z,65535.0
2019-05-26T12:30:01.398Z,65535.0
2019-05-26T12:33:01.103Z,65405.0
2019-05-26T12:38:01.262Z,65259.4
2019-05-26T12:40:06.105Z,64923.7
2019-05-26T12:45:01.391Z,64923.7
2019-05-26T12:48:01.170Z,65053.7
2019-05-26T12:54:01.564Z,65199.3
2019-05-26T12:56:01.088Z,65535.0
2019-05-26T13:00:01.155Z,65535.0
2019-05-26T13:15:05.733Z,65535.0
2019-05-26T13:30:01.066Z,65535.0
2019-05-26T13:37:01.312Z,64930.5
2019-05-26T13:39:06.071Z,63720.4
2019-05-26T13:40:01.102Z,62096.9
2019-05-26T13:41:01.102Z,60871.9
2019-05-26T13:42:02.101Z,60656.9
2019-05-26T13:44:01.186Z,60446.6
2019-05-26T13:45:20.992Z,60165.8
2019-05-26T13:46:01.070Z,59927.0
2019-05-26T13:48:01.102Z,59896.3
2019-05-26T13:50:01.103Z,59894.2
2019-05-26T13:52:01.266Z,60422.8
2019-05-26T13:53:01.102Z,60031.3
2019-05-26T13:54:01.105Z,60420.3
2019-05-26T13:55:01.103Z,61846.5
2019-05-26T13:56:01.189Z,62984.9
2019-05-26T13:57:01.249Z,63199.9
2019-05-26T14:00:01.092Z,63200.5
2019-05-26T14:01:01.090Z,63320.1
2019-05-26T14:02:01.160Z,63300.0
2019-05-26T14:03:01.236Z,62948.5
2019-05-26T14:04:01.087Z,62283.3
2019-05-26T14:06:01.094Z,62285.3
2019-05-26T14:07:01.091Z,61388.0
2019-05-26T14:08:01.247Z,60146.9
2019-05-26T14:09:02.227Z,59474.0
2019-05-26T14:10:01.093Z,59172.4
2019-05-26T14:11:01.089Z,58247.9
2019-05-26T14:12:01.122Z,57238.9
2019-05-26T14:13:01.253Z,56112.8
2019-05-26T14:14:01.119Z,55010.9
2019-05-26T14:15:01.095Z,54250.3
2019-05-26T14:16:01.214Z,53052.0
2019-05-26T14:17:01.093Z,51183.9
2019-05-26T14:18:01.238Z,48812.7
2019-05-26T14:19:01.121Z,46587.5
2019-05-26T14:20:01.092Z,43761.8
2019-05-26T14:21:01.061Z,40887.1
2019-05-26T14:22:01.095Z,39180.3
2019-05-26T14:23:01.270Z,37784.1
2019-05-26T14:24:01.126Z,36016.8
2019-05-26T14:25:01.097Z,34210.7
2019-05-26T14:26:01.107Z,32363.3
2019-05-26T14:27:01.134Z,30214.7
2019-05-26T14:28:01.253Z,28168.0
2019-05-26T14:29:01.101Z,25910.5
2019-05-26T14:30:01.127Z,23483.9
2019-05-26T14:31:01.096Z,21401.3
2019-05-26T14:32:01.100Z,20120.7
2019-05-26T14:33:01.252Z,19544.3
2019-05-26T14:34:01.129Z,19152.7
2019-05-26T14:35:01.097Z,18919.1
2019-05-26T14:36:01.100Z,18889.8
2019-05-26T14:37:01.100Z,18650.8
2019-05-26T14:38:01.269Z,18785.1
2019-05-26T14:39:01.144Z,19234.8
2019-05-26T14:40:01.110Z,19808.3
2019-05-26T14:41:01.104Z,21001.9
2019-05-26T14:42:01.112Z,22634.5
2019-05-26T14:43:01.379Z,24341.7
2019-05-26T14:44:06.104Z,27440.2
2019-05-26T14:45:03.835Z,30032.0
2019-05-26T14:46:01.114Z,32732.2
2019-05-26T14:47:01.105Z,35643.7
2019-05-26T14:48:02.343Z,37740.0
2019-05-26T14:49:01.123Z,39962.1
2019-05-26T14:50:01.108Z,42115.9
2019-05-26T14:51:01.102Z,44176.7
2019-05-26T14:52:01.110Z,45514.3
2019-05-26T14:54:01.326Z,46248.2
2019-05-26T14:55:01.097Z,47005.4
2019-05-26T14:56:01.096Z,47205.3
2019-05-26T14:57:01.115Z,46944.9
2019-05-26T14:58:14.173Z,46157.3
2019-05-26T14:59:01.260Z,45121.6
2019-05-26T15:00:01.107Z,42947.6
2019-05-26T15:01:01.094Z,41257.6
2019-05-26T15:02:01.090Z,39883.2
2019-05-26T15:03:06.097Z,38234.8
2019-05-26T15:04:01.235Z,37660.2
2019-05-26T15:05:01.094Z,36826.5
2019-05-26T15:06:05.677Z,36323.8
2019-05-26T15:07:01.100Z,35638.9
2019-05-26T15:08:01.113Z,36983.7
2019-05-26T15:09:01.240Z,38253.1
2019-05-26T15:10:01.100Z,39502.0
2019-05-26T15:11:01.093Z,41231.5
2019-05-26T15:12:01.121Z,42485.2
2019-05-26T15:13:01.122Z,44154.3
2019-05-26T15:14:01.243Z,45717.4
2019-05-26T15:15:01.099Z,47262.1
2019-05-26T15:16:09.605Z,48920.3
2019-05-26T15:17:01.094Z,50182.9
2019-05-26T15:18:06.101Z,52327.5
2019-05-26T15:19:01.245Z,54104.9
2019-05-26T15:20:01.097Z,55978.5
2019-05-26T15:21:01.111Z,56968.2
2019-05-26T15:22:01.983Z,57637.3
2019-05-26T15:23:01.120Z,55874.1
2019-05-26T15:24:01.246Z,54231.7
2019-05-26T15:25:01.098Z,52517.9
2019-05-26T15:26:01.104Z,51576.9
2019-05-26T15:27:01.112Z,50625.0
2019-05-26T15:28:01.127Z,49695.9
2019-05-26T15:29:01.249Z,49982.9
2019-05-26T15:30:01.103Z,50500.2
2019-05-26T15:31:01.139Z,51337.1
2019-05-26T15:32:02.979Z,52190.7
2019-05-26T15:34:01.245Z,51726.7
2019-05-26T15:35:01.099Z,50938.5
2019-05-26T15:36:01.098Z,50376.9
2019-05-26T15:37:01.106Z,50156.5
2019-05-26T15:38:06.108Z,50499.5
2019-05-26T15:39:01.302Z,51559.9
2019-05-26T15:40:01.111Z,52488.6
2019-05-26T15:41:01.112Z,52068.0
2019-05-26T15:42:01.106Z,51918.5
2019-05-26T15:43:06.104Z,51717.5
2019-05-26T15:44:01.251Z,50218.3
2019-05-26T15:45:01.078Z,48639.7
2019-05-26T15:46:01.141Z,46745.4
2019-05-26T15:48:01.113Z,44784.0
2019-05-26T15:49:01.298Z,42530.5
2019-05-26T15:50:01.089Z,41021.1
2019-05-26T15:51:01.096Z,40441.0
2019-05-26T15:52:01.088Z,40825.4
2019-05-26T15:53:01.139Z,40780.8
2019-05-26T15:54:01.238Z,42361.8
2019-05-26T15:55:01.090Z,43519.2
2019-05-26T15:56:01.099Z,43934.1
2019-05-26T15:57:01.115Z,44188.9
2019-05-26T15:58:01.114Z,44476.3
2019-05-26T15:59:01.245Z,44957.3
2019-05-26T16:00:01.109Z,45903.7
2019-05-26T16:01:01.097Z,46099.3
2019-05-26T16:02:01.095Z,46691.1
2019-05-26T16:03:01.120Z,47692.9
2019-05-26T16:04:01.242Z,48507.8
2019-05-26T16:05:01.093Z,48389.4
2019-05-26T16:06:01.100Z,47799.0
2019-05-26T16:07:01.097Z,46775.3
2019-05-26T16:08:01.125Z,46225.9
2019-05-26T16:09:01.249Z,44558.3
2019-05-26T16:10:02.802Z,43183.9
2019-05-26T16:11:01.098Z,42351.3
2019-05-26T16:12:01.100Z,42055.6
2019-05-26T16:13:01.139Z,41406.1
2019-05-26T16:14:01.419Z,40104.5
2019-05-26T16:15:01.099Z,38585.9
2019-05-26T16:16:02.117Z,37452.8
2019-05-26T16:17:01.116Z,35896.9
2019-05-26T16:18:01.129Z,34097.4
2019-05-26T16:19:01.323Z,32905.5
2019-05-26T16:20:01.142Z,32495.3
2019-05-26T16:21:03.213Z,31868.3
2019-05-26T16:22:01.106Z,30722.9
2019-05-26T16:23:01.121Z,29487.6
2019-05-26T16:24:01.254Z,28418.0
2019-05-26T16:25:01.100Z,27230.3
2019-05-26T16:26:01.111Z,26303.9
2019-05-26T16:27:16.134Z,25749.9
2019-05-26T16:28:01.091Z,25561.1
2019-05-26T16:29:01.255Z,25685.9
2019-05-26T16:30:01.102Z,25790.3
2019-05-26T16:31:01.100Z,25768.1
2019-05-26T16:32:01.111Z,25423.7
2019-05-26T16:33:06.125Z,25096.2
2019-05-26T16:34:01.320Z,24265.6
2019-05-26T16:35:01.116Z,23339.3
2019-05-26T16:36:01.102Z,22614.1
2019-05-26T16:37:01.102Z,21963.8
2019-05-26T16:38:01.111Z,21582.5
2019-05-26T16:40:01.271Z,21189.9
2019-05-26T16:41:01.092Z,20842.1
2019-05-26T16:42:01.096Z,20207.2
2019-05-26T16:43:01.096Z,19459.2
2019-05-26T16:44:01.094Z,19045.9
2019-05-26T16:45:01.240Z,18853.1
2019-05-26T16:46:01.097Z,19064.7
2019-05-26T16:47:02.124Z,19437.7
2019-05-26T16:48:01.095Z,20080.0
2019-05-26T16:49:01.098Z,20873.3
2019-05-26T16:50:01.270Z,21870.9
2019-05-26T16:51:01.148Z,23065.7
2019-05-26T16:52:01.094Z,24121.9
2019-05-26T16:53:01.153Z,25060.7
2019-05-26T16:54:01.095Z,25549.0
2019-05-26T16:55:01.275Z,25892.1
2019-05-26T16:56:01.099Z,25875.4
2019-05-26T16:57:01.097Z,25761.5
2019-05-26T16:58:01.101Z,25467.0
2019-05-26T16:59:01.101Z,25132.1
2019-05-26T17:00:01.253Z,24514.6
2019-05-26T17:01:01.393Z,23501.2
2019-05-26T17:02:01.609Z,22762.6
2019-05-26T17:03:01.104Z,21838.5
2019-05-26T17:04:01.074Z,20919.6
2019-05-26T17:05:01.279Z,20047.9
2019-05-26T17:06:07.734Z,19002.0
2019-05-26T17:07:01.099Z,18209.3
2019-05-26T17:08:01.169Z,17496.3
2019-05-26T17:09:01.099Z,17460.5
2019-05-26T17:10:01.341Z,17383.5
2019-05-26T17:11:01.099Z,17269.6
2019-05-26T17:12:01.114Z,17886.0
2019-05-26T17:13:01.103Z,18653.9
2019-05-26T17:14:01.098Z,19212.5
2019-05-26T17:15:01.340Z,19569.5
2019-05-26T17:16:01.100Z,19925.6
2019-05-26T17:17:13.918Z,20269.5
2019-05-26T17:18:01.194Z,20477.4
2019-05-26T17:19:01.119Z,20934.2
2019-05-26T17:20:01.280Z,21443.1
2019-05-26T17:21:01.106Z,21705.8
2019-05-26T17:22:01.101Z,21746.6
2019-05-26T17:23:01.100Z,21948.5
2019-05-26T17:24:02.169Z,21626.0
2019-05-26T17:25:02.824Z,21595.4
2019-05-26T17:27:01.101Z,21924.9
2019-05-26T17:28:01.111Z,21978.8
2019-05-26T17:29:01.095Z,22156.1
2019-05-26T17:30:01.090Z,21937.7
2019-05-26T17:31:01.273Z,22129.0
2019-05-26T17:32:01.096Z,22851.6
2019-05-26T17:33:01.092Z,23352.4
2019-05-26T17:34:01.105Z,24085.5
2019-05-26T17:35:01.103Z,24460.1
2019-05-26T17:36:01.350Z,24806.9
2019-05-26T17:37:01.101Z,25322.9
2019-05-26T17:38:01.097Z,25671.1
2019-05-26T17:39:01.098Z,26026.8
2019-05-26T17:40:01.094Z,26455.3
2019-05-26T17:41:01.270Z,26450.5
2019-05-26T17:42:01.098Z,26660.1
2019-05-26T17:43:01.098Z,26218.9
2019-05-26T17:44:01.103Z,25679.4
2019-05-26T17:45:01.100Z,25356.3
2019-05-26T17:46:01.269Z,24964.1
2019-05-26T17:47:01.102Z,24212.6
2019-05-26T17:48:06.280Z,23644.6
2019-05-26T17:49:01.097Z,22924.7
2019-05-26T17:50:01.102Z,21804.7
2019-05-26T17:51:01.245Z,20730.9
2019-05-26T17:52:01.073Z,19897.5
2019-05-26T17:53:01.120Z,19545.7
2019-05-26T17:54:01.148Z,19026.5
2019-05-26T17:55:01.098Z,18334.1
2019-05-26T17:56:01.309Z,17756.7
2019-05-26T17:57:06.103Z,16889.9
2019-05-26T17:58:01.103Z,16394.1
2019-05-26T17:59:01.098Z,15984.5
2019-05-26T18:00:01.104Z,15711.9
2019-05-26T18:01:01.250Z,15383.7
2019-05-26T18:02:01.090Z,14829.2
2019-05-26T18:03:01.110Z,14115.3
2019-05-26T18:04:01.100Z,13615.7
2019-05-26T18:05:01.107Z,13492.8
2019-05-26T18:06:01.254Z,13486.0
2019-05-26T18:07:06.106Z,13191.1
2019-05-26T18:08:01.106Z,12616.5
2019-05-26T18:09:01.111Z,12035.3
2019-05-26T18:10:01.100Z,11606.5
2019-05-26T18:11:01.256Z,11223.0
2019-05-26T18:12:06.158Z,10885.1
2019-05-26T18:13:01.115Z,10570.5
2019-05-26T18:14:01.106Z,10081.8
2019-05-26T18:16:01.298Z,9465.1
2019-05-26T18:17:01.097Z,8925.1
2019-05-26T18:18:01.089Z,8427.2
2019-05-26T18:19:01.089Z,8038.1
2019-05-26T18:20:01.097Z,7706.1
2019-05-26T18:21:01.236Z,7189.4
2019-05-26T18:22:01.097Z,6611.9
2019-05-26T18:23:01.091Z,6097.9
2019-05-26T18:24:01.120Z,5611.9
2019-05-26T18:25:01.126Z,5240.3
2019-05-26T18:26:01.306Z,5000.1
2019-05-26T18:27:01.095Z,4816.1
2019-05-26T18:28:01.859Z,4532.5
2019-05-26T18:29:01.093Z,4402.3
2019-05-26T18:30:01.093Z,4316.1
2019-05-26T18:31:01.260Z,4338.7
2019-05-26T18:32:01.524Z,4424.3
2019-05-26T18:33:01.094Z,4528.3
2019-05-26T18:34:01.096Z,4595.4
2019-05-26T18:35:01.097Z,4627.7
2019-05-26T18:36:01.267Z,4648.7
2019-05-26T18:37:01.096Z,4704.9
2019-05-26T18:38:01.118Z,4884.8
2019-05-26T18:39:01.131Z,4994.9
2019-05-26T18:40:01.159Z,5102.0
2019-05-26T18:41:01.275Z,5128.5
2019-05-26T18:42:01.099Z,5070.9
2019-05-26T18:43:01.099Z,4957.6
2019-05-26T18:44:01.098Z,4789.3
2019-05-26T18:45:01.103Z,4651.0
2019-05-26T18:46:01.254Z,4547.7
2019-05-26T18:47:01.099Z,4362.9
2019-05-26T18:48:03.274Z,4222.9
2019-05-26T18:49:06.112Z,4059.8
2019-05-26T18:50:02.516Z,3947.9
2019-05-26T18:51:01.253Z,3885.3
2019-05-26T18:52:01.112Z,3738.5
2019-05-26T18:53:01.103Z,3474.8
2019-05-26T18:54:06.111Z,3256.6
2019-05-26T18:55:06.170Z,3027.4
2019-05-26T18:56:01.253Z,2836.1
2019-05-26T18:57:01.073Z,2690.0
2019-05-26T18:58:01.140Z,2520.9
2019-05-26T19:00:01.096Z,2387.9
2019-05-26T19:01:01.205Z,2246.0
2019-05-26T19:02:01.089Z,2094.7
2019-05-26T19:03:01.099Z,1986.8
2019-05-26T19:04:01.089Z,1864.5
2019-05-26T19:05:01.095Z,1776.6
2019-05-26T19:06:01.236Z,1645.3
2019-05-26T19:07:01.097Z,1513.3
2019-05-26T19:08:01.095Z,1428.7
2019-05-26T19:09:01.100Z,1336.8
2019-05-26T19:10:01.091Z,1244.5
2019-05-26T19:11:02.111Z,1148.0
2019-05-26T19:12:01.093Z,1076.5
2019-05-26T19:13:01.093Z,995.7
2019-05-26T19:14:01.092Z,952.8
2019-05-26T19:15:01.094Z,910.6
2019-05-26T19:16:01.245Z,877.7
2019-05-26T19:17:01.117Z,852.5
2019-05-26T19:18:01.099Z,823.4
2019-05-26T19:19:01.094Z,814.7
2019-05-26T19:20:14.719Z,778.9
2019-05-26T19:21:01.252Z,771.6
2019-05-26T19:22:01.095Z,760.7
2019-05-26T19:23:02.340Z,763.9
2019-05-26T19:24:01.094Z,771.5
2019-05-26T19:25:01.099Z,768.9
2019-05-26T19:26:01.250Z,762.8
2019-05-26T19:27:01.099Z,761.8
2019-05-26T19:28:01.095Z,760.2
2019-05-26T19:29:01.096Z,749.1
2019-05-26T19:30:01.100Z,724.1
2019-05-26T19:31:01.628Z,695.9
2019-05-26T19:32:01.230Z,665.9
2019-05-26T19:33:01.106Z,637.4
2019-05-26T19:34:01.099Z,601.5
2019-05-26T19:35:01.102Z,575.1
2019-05-26T19:36:01.248Z,534.0
2019-05-26T19:37:01.105Z,503.3
2019-05-26T19:38:01.099Z,455.9
2019-05-26T19:39:01.100Z,406.0
2019-05-26T19:40:01.130Z,369.0
2019-05-26T19:41:01.268Z,335.5
2019-05-26T19:42:01.108Z,304.3
2019-05-26T19:43:01.107Z,273.2
2019-05-26T19:44:01.103Z,236.4
2019-05-26T19:45:06.109Z,210.5
2019-05-26T19:46:01.251Z,192.9
2019-05-26T19:47:01.106Z,171.9
2019-05-26T19:48:01.116Z,150.8
2019-05-26T19:49:01.101Z,134.7
2019-05-26T19:50:01.127Z,118.9
2019-05-26T19:51:01.247Z,109.8
2019-05-26T19:52:01.105Z,101.1
2019-05-26T19:53:01.137Z,91.6